sensor_id;sensor_type;location;lat;lon;timestamp;pressure;altitude;pressure_sealevel;temperature;humidity
11049;BME280;5577;42.706;23.160;2023-07-29T00:01:21;94023.75;;;16.86;100.00
11049;BME280;5577;42.706;23.160;2023-07-29T00:04:05;94029.06;;;16.96;100.00
11049;BME280;5577;42.706;23.160;2023-07-29T00:06:49;94028.66;;;17.05;100.00
11049;BME280;5577;42.706;23.160;2023-07-29T00:09:32;94025.63;;;16.99;100.00
11049;BME280;5577;42.706;23.160;2023-07-29T00:12:16;94031.38;;;16.91;100.00
11049;BME280;5577;42.706;23.160;2023-07-29T00:15:00;94025.63;;;16.96;100.00
11049;BME280;5577;42.706;23.160;2023-07-29T00:17:44;94020.69;;;16.87;100.00
11049;BME280;5577;42.706;23.160;2023-07-29T00:20:28;94018.81;;;16.77;100.00
11049;BME280;5577;42.706;23.160;2023-07-29T00:23:12;94039.78;;;16.86;100.00
11049;BME280;5577;42.706;23.160;2023-07-29T00:25:56;94022.97;;;16.89;100.00
11049;BME280;5577;42.706;23.160;2023-07-29T00:28:40;94013.81;;;16.90;100.00
11049;BME280;5577;42.706;23.160;2023-07-29T00:31:24;94013.06;;;16.86;100.00
11049;BME280;5577;42.706;23.160;2023-07-29T00:34:08;94011.19;;;16.83;100.00
11049;BME280;5577;42.706;23.160;2023-07-29T00:36:52;94019.59;;;16.74;100.00
11049;BME280;5577;42.706;23.160;2023-07-29T00:39:36;94004.72;;;16.70;100.00
11049;BME280;5577;42.706;23.160;2023-07-29T00:42:21;94010.81;;;16.70;100.00
11049;BME280;5577;42.706;23.160;2023-07-29T00:45:05;94016.16;;;16.70;100.00
11049;BME280;5577;42.706;23.160;2023-07-29T00:47:51;94014.63;;;16.76;100.00
11049;BME280;5577;42.706;23.160;2023-07-29T00:50:35;94014.25;;;16.71;100.00
11049;BME280;5577;42.706;23.160;2023-07-29T00:53:19;94011.97;;;16.62;100.00
11049;BME280;5577;42.706;23.160;2023-07-29T00:56:03;94010.88;;;16.46;100.00
11049;BME280;5577;42.706;23.160;2023-07-29T00:58:47;94011.63;;;16.53;100.00
11049;BME280;5577;42.706;23.160;2023-07-29T01:01:32;94011.63;;;16.53;100.00
11049;BME280;5577;42.706;23.160;2023-07-29T01:04:15;94013.56;;;16.42;100.00
11049;BME280;5577;42.706;23.160;2023-07-29T01:16:42;94008.97;;;16.29;100.00
11049;BME280;5577;42.706;23.160;2023-07-29T01:19:48;94012.03;;;16.31;100.00
11049;BME280;5577;42.706;23.160;2023-07-29T01:22:39;94006.28;;;16.29;100.00
11049;BME280;5577;42.706;23.160;2023-07-29T01:25:24;94004.00;;;16.27;100.00
11049;BME280;5577;42.706;23.160;2023-07-29T01:28:08;94002.88;;;16.25;100.00
11049;BME280;5577;42.706;23.160;2023-07-29T01:31:00;94003.25;;;16.23;100.00
11049;BME280;5577;42.706;23.160;2023-07-29T01:33:51;94012.78;;;16.10;100.00
11049;BME280;5577;42.706;23.160;2023-07-29T01:36:41;94011.69;;;15.97;100.00
11049;BME280;5577;42.706;23.160;2023-07-29T01:39:28;94017.00;;;15.94;100.00
11049;BME280;5577;42.706;23.160;2023-07-29T01:42:13;94010.91;;;16.00;100.00
11049;BME280;5577;42.706;23.160;2023-07-29T01:44:57;93999.47;;;16.07;100.00
11049;BME280;5577;42.706;23.160;2023-07-29T01:47:41;94010.13;;;16.07;100.00
11049;BME280;5577;42.706;23.160;2023-07-29T01:50:25;94011.69;;;15.97;100.00
11049;BME280;5577;42.706;23.160;2023-07-29T01:53:09;94017.00;;;15.94;100.00
11049;BME280;5577;42.706;23.160;2023-07-29T01:55:53;94005.56;;;16.00;100.00
11049;BME280;5577;42.706;23.160;2023-07-29T01:58:37;93991.47;;;15.93;100.00
11049;BME280;5577;42.706;23.160;2023-07-29T02:01:21;94009.38;;;15.96;100.00
11049;BME280;5577;42.706;23.160;2023-07-29T02:04:05;94007.47;;;16.00;100.00
11049;BME280;5577;42.706;23.160;2023-07-29T02:06:49;93994.91;;;15.93;100.00
11049;BME280;5577;42.706;23.160;2023-07-29T02:09:32;93982.69;;;15.68;100.00
11049;BME280;5577;42.706;23.160;2023-07-29T02:12:16;94010.50;;;15.74;100.00
11049;BME280;5577;42.706;23.160;2023-07-29T02:15:00;94012.78;;;15.58;100.00
11049;BME280;5577;42.706;23.160;2023-07-29T02:17:44;94014.31;;;15.73;100.00
11049;BME280;5577;42.706;23.160;2023-07-29T02:20:28;94015.06;;;15.70;100.00
11049;BME280;5577;42.706;23.160;2023-07-29T02:23:12;94010.47;;;15.60;100.00
11049;BME280;5577;42.706;23.160;2023-07-29T02:25:56;94017.34;;;15.47;100.00
11049;BME280;5577;42.706;23.160;2023-07-29T02:28:40;94012.38;;;15.49;100.00
11049;BME280;5577;42.706;23.160;2023-07-29T02:31:25;94007.06;;;15.52;100.00
11049;BME280;5577;42.706;23.160;2023-07-29T02:34:09;94009.34;;;15.50;100.00
11049;BME280;5577;42.706;23.160;2023-07-29T02:36:52;94009.34;;;15.47;100.00
11049;BME280;5577;42.706;23.160;2023-07-29T02:39:37;94002.84;;;15.48;100.00
11049;BME280;5577;42.706;23.160;2023-07-29T02:42:21;94012.38;;;15.45;100.00
11049;BME280;5577;42.706;23.160;2023-07-29T02:45:05;94017.34;;;15.54;100.00
11049;BME280;5577;42.706;23.160;2023-07-29T02:47:53;94022.66;;;15.40;100.00
11049;BME280;5577;42.706;23.160;2023-07-29T02:50:37;94014.25;;;15.38;100.00
11049;BME280;5577;42.706;23.160;2023-07-29T02:53:24;94021.75;;;15.01;100.00
11049;BME280;5577;42.706;23.160;2023-07-29T02:56:08;94030.94;;;15.14;100.00
11049;BME280;5577;42.706;23.160;2023-07-29T02:58:53;94026.38;;;15.14;100.00
11049;BME280;5577;42.706;23.160;2023-07-29T03:01:37;94026.69;;;14.95;100.00
11049;BME280;5577;42.706;23.160;2023-07-29T03:04:21;94040.38;;;14.94;100.00
11049;BME280;5577;42.706;23.160;2023-07-29T03:07:05;94039.69;;;15.04;100.00
11049;BME280;5577;42.706;23.160;2023-07-29T03:09:49;94040.75;;;14.96;100.00
11049;BME280;5577;42.706;23.160;2023-07-29T03:12:33;94020.97;;;14.90;100.00
11049;BME280;5577;42.706;23.160;2023-07-29T03:15:18;93959.91;;;14.57;100.00
11049;BME280;5577;42.706;23.160;2023-07-29T03:18:02;94034.72;;;15.02;100.00
11049;BME280;5577;42.706;23.160;2023-07-29T03:20:46;94031.66;;;15.00;100.00
11049;BME280;5577;42.706;23.160;2023-07-29T03:23:30;94032.41;;;14.97;100.00
11049;BME280;5577;42.706;23.160;2023-07-29T03:26:15;94036.59;;;14.95;100.00
11049;BME280;5577;42.706;23.160;2023-07-29T03:28:59;94040.41;;;15.04;100.00
11049;BME280;5577;42.706;23.160;2023-07-29T03:31:43;94040.06;;;15.09;100.00
11049;BME280;5577;42.706;23.160;2023-07-29T03:34:26;94035.50;;;15.06;100.00
11049;BME280;5577;42.706;23.160;2023-07-29T03:37:10;94037.38;;;15.06;100.00
11049;BME280;5577;42.706;23.160;2023-07-29T03:39:54;94036.28;;;15.17;100.00
11049;BME280;5577;42.706;23.160;2023-07-29T03:42:38;94038.53;;;15.08;100.00
11049;BME280;5577;42.706;23.160;2023-07-29T03:45:22;94041.56;;;15.03;100.00
11049;BME280;5577;42.706;23.160;2023-07-29T03:48:06;94039.69;;;15.04;100.00
11049;BME280;5577;42.706;23.160;2023-07-29T04:03:22;94033.03;;;16.04;100.00
11049;BME280;5577;42.706;23.160;2023-07-29T04:06:06;94039.13;;;16.12;100.00
11049;BME280;5577;42.706;23.160;2023-07-29T04:08:51;94039.50;;;16.07;100.00
11049;BME280;5577;42.706;23.160;2023-07-29T04:11:35;94042.56;;;16.19;100.00
11049;BME280;5577;42.706;23.160;2023-07-29T04:14:19;94039.50;;;16.35;100.00
11049;BME280;5577;42.706;23.160;2023-07-29T04:17:04;94029.16;;;16.37;100.00
11049;BME280;5577;42.706;23.160;2023-07-29T04:19:48;94047.91;;;16.54;100.00
11049;BME280;5577;42.706;23.160;2023-07-29T04:22:32;94044.06;;;16.62;100.00
11049;BME280;5577;42.706;23.160;2023-07-29T04:25:16;94048.63;;;16.76;100.00
11049;BME280;5577;42.706;23.160;2023-07-29T04:28:00;94047.75;;;17.00;100.00
11049;BME280;5577;42.706;23.160;2023-07-29T04:30:46;94051.53;;;17.13;100.00
11049;BME280;5577;42.706;23.160;2023-07-29T04:33:30;94039.31;;;17.19;100.00
11049;BME280;5577;42.706;23.160;2023-07-29T04:36:14;94050.34;;;17.21;100.00
11049;BME280;5577;42.706;23.160;2023-07-29T04:38:58;94060.28;;;17.28;100.00
11049;BME280;5577;42.706;23.160;2023-07-29T04:41:43;94048.78;;;17.38;100.00
11049;BME280;5577;42.706;23.160;2023-07-29T04:44:27;94056.31;;;17.64;100.00
11049;BME280;5577;42.706;23.160;2023-07-29T04:47:11;94055.03;;;17.82;100.00
11049;BME280;5577;42.706;23.160;2023-07-29T04:49:55;94055.34;;;17.95;100.00
11049;BME280;5577;42.706;23.160;2023-07-29T04:52:39;94056.03;;;18.02;100.00
11049;BME280;5577;42.706;23.160;2023-07-29T04:55:23;94059.03;;;18.15;100.00
11049;BME280;5577;42.706;23.160;2023-07-29T04:58:07;94063.50;;;18.28;100.00
11049;BME280;5577;42.706;23.160;2023-07-29T05:00:51;94062.97;;;18.47;100.00
11049;BME280;5577;42.706;23.160;2023-07-29T05:03:35;94060.31;;;18.47;100.00
11049;BME280;5577;42.706;23.160;2023-07-29T05:06:19;94070.22;;;18.54;100.00
11049;BME280;5577;42.706;23.160;2023-07-29T05:09:16;94075.53;;;18.57;100.00
11049;BME280;5577;42.706;23.160;2023-07-29T05:12:02;94073.63;;;18.58;100.00
11049;BME280;5577;42.706;23.160;2023-07-29T05:14:46;94077.81;;;18.59;100.00
11049;BME280;5577;42.706;23.160;2023-07-29T05:17:30;94075.19;;;18.55;100.00
11049;BME280;5577;42.706;23.160;2023-07-29T05:20:14;94074.38;;;18.58;100.00
11049;BME280;5577;42.706;23.160;2023-07-29T05:22:58;94073.84;;;18.74;100.00
11049;BME280;5577;42.706;23.160;2023-07-29T05:25:41;94079.91;;;18.81;100.00
11049;BME280;5577;42.706;23.160;2023-07-29T05:28:26;94078.53;;;19.03;100.00
11049;BME280;5577;42.706;23.160;2023-07-29T05:31:09;94078.75;;;19.19;100.00
11049;BME280;5577;42.706;23.160;2023-07-29T05:33:53;94084.41;;;19.28;100.00
11049;BME280;5577;42.706;23.160;2023-07-29T05:36:37;94082.41;;;19.36;100.00
11049;BME280;5577;42.706;23.160;2023-07-29T05:39:23;94084.59;;;19.44;100.00
11049;BME280;5577;42.706;23.160;2023-07-29T05:42:08;94083.31;;;19.56;100.00
11049;BME280;5577;42.706;23.160;2023-07-29T05:44:51;94090.19;;;19.57;100.00
11049;BME280;5577;42.706;23.160;2023-07-29T05:47:35;94082.03;;;19.67;100.00
11049;BME280;5577;42.706;23.160;2023-07-29T05:50:20;94085.50;;;19.64;100.00
11049;BME280;5577;42.706;23.160;2023-07-29T05:53:03;94086.63;;;19.67;100.00
11049;BME280;5577;42.706;23.160;2023-07-29T05:55:47;94089.63;;;19.72;100.00
11049;BME280;5577;42.706;23.160;2023-07-29T05:58:31;94073.53;;;19.69;100.00
11049;BME280;5577;42.706;23.160;2023-07-29T06:01:16;94087.84;;;19.89;100.00
11049;BME280;5577;42.706;23.160;2023-07-29T06:04:00;94079.19;;;20.05;100.00
11049;BME280;5577;42.706;23.160;2023-07-29T06:06:44;94078.66;;;20.17;100.00
11049;BME280;5577;42.706;23.160;2023-07-29T06:09:28;94072.88;;;20.41;100.00
11049;BME280;5577;42.706;23.160;2023-07-29T06:12:12;94076.91;;;20.76;100.00
11049;BME280;5577;42.706;23.160;2023-07-29T06:14:56;94082.03;;;20.90;100.00
11049;BME280;5577;42.706;23.160;2023-07-29T06:17:40;94073.00;;;21.03;100.00
11049;BME280;5577;42.706;23.160;2023-07-29T06:20:24;94073.47;;;21.18;100.00
11049;BME280;5577;42.706;23.160;2023-07-29T06:23:08;94050.69;;;21.22;100.00
11049;BME280;5577;42.706;23.160;2023-07-29T06:25:52;94058.50;;;21.36;100.00
11049;BME280;5577;42.706;23.160;2023-07-29T06:28:36;94065.88;;;21.52;100.00
11049;BME280;5577;42.706;23.160;2023-07-29T06:31:20;94059.53;;;21.62;100.00
11049;BME280;5577;42.706;23.160;2023-07-29T06:34:04;94068.09;;;21.76;100.00
11049;BME280;5577;42.706;23.160;2023-07-29T06:36:48;94057.09;;;21.87;100.00
11049;BME280;5577;42.706;23.160;2023-07-29T06:39:32;94060.41;;;21.94;100.00
11049;BME280;5577;42.706;23.160;2023-07-29T06:42:16;94063.25;;;22.03;100.00
11049;BME280;5577;42.706;23.160;2023-07-29T06:44:59;94056.88;;;22.29;100.00
11049;BME280;5577;42.706;23.160;2023-07-29T06:47:44;94066.56;;;22.27;100.00
11049;BME280;5577;42.706;23.160;2023-07-29T06:50:28;94064.88;;;22.33;100.00
11049;BME280;5577;42.706;23.160;2023-07-29T06:53:12;94067.19;;;22.51;100.00
11049;BME280;5577;42.706;23.160;2023-07-29T06:55:56;94064.50;;;22.51;100.00
11049;BME280;5577;42.706;23.160;2023-07-29T06:58:40;94066.44;;;22.66;98.40
11049;BME280;5577;42.706;23.160;2023-07-29T07:01:24;94071.28;;;22.87;99.74
11049;BME280;5577;42.706;23.160;2023-07-29T07:04:08;94069.81;;;22.99;97.80
11049;BME280;5577;42.706;23.160;2023-07-29T07:06:52;94064.94;;;22.94;90.96
11049;BME280;5577;42.706;23.160;2023-07-29T07:09:36;94063.81;;;23.07;99.47
11049;BME280;5577;42.706;23.160;2023-07-29T07:12:20;94061.25;;;23.16;89.59
11049;BME280;5577;42.706;23.160;2023-07-29T07:15:04;94057.03;;;23.15;86.63
11049;BME280;5577;42.706;23.160;2023-07-29T07:17:48;94055.59;;;23.27;86.30
11049;BME280;5577;42.706;23.160;2023-07-29T07:20:32;94056.53;;;23.49;87.16
11049;BME280;5577;42.706;23.160;2023-07-29T07:23:17;94034.47;;;23.50;88.57
11049;BME280;5577;42.706;23.160;2023-07-29T07:26:01;94039.34;;;23.55;86.26
11049;BME280;5577;42.706;23.160;2023-07-29T07:28:46;94057.84;;;23.57;82.39
11049;BME280;5577;42.706;23.160;2023-07-29T07:31:33;94055.38;;;23.62;88.08
11049;BME280;5577;42.706;23.160;2023-07-29T07:34:18;94050.63;;;23.66;83.60
11049;BME280;5577;42.706;23.160;2023-07-29T07:37:03;94046.63;;;23.71;81.66
11049;BME280;5577;42.706;23.160;2023-07-29T07:39:47;94055.47;;;23.71;80.99
11049;BME280;5577;42.706;23.160;2023-07-29T07:42:31;94048.38;;;23.90;85.80
11049;BME280;5577;42.706;23.160;2023-07-29T07:45:15;94048.41;;;24.02;79.87
11049;BME280;5577;42.706;23.160;2023-07-29T07:48:01;94040.19;;;24.06;76.98
11049;BME280;5577;42.706;23.160;2023-07-29T07:50:46;94050.00;;;24.37;78.35
11049;BME280;5577;42.706;23.160;2023-07-29T07:53:30;94056.50;;;24.52;74.95
11049;BME280;5577;42.706;23.160;2023-07-29T07:56:14;94052.91;;;24.55;78.21
11049;BME280;5577;42.706;23.160;2023-07-29T07:58:59;94048.03;;;24.63;81.83
11049;BME280;5577;42.706;23.160;2023-07-29T08:01:43;94055.16;;;24.57;73.95
11049;BME280;5577;42.706;23.160;2023-07-29T08:04:27;94038.00;;;24.63;73.26
11049;BME280;5577;42.706;23.160;2023-07-29T08:07:10;94061.34;;;24.70;78.03
11049;BME280;5577;42.706;23.160;2023-07-29T08:09:54;94050.59;;;24.91;74.48
11049;BME280;5577;42.706;23.160;2023-07-29T08:12:38;94052.66;;;24.87;74.32
11049;BME280;5577;42.706;23.160;2023-07-29T08:15:22;94051.41;;;25.01;75.45
11049;BME280;5577;42.706;23.160;2023-07-29T08:18:06;94048.13;;;24.84;72.40
11049;BME280;5577;42.706;23.160;2023-07-29T08:20:52;94057.03;;;25.07;70.47
11049;BME280;5577;42.706;23.160;2023-07-29T08:23:38;94062.69;;;25.34;70.10
11049;BME280;5577;42.706;23.160;2023-07-29T08:26:22;94056.41;;;25.37;67.34
11049;BME280;5577;42.706;23.160;2023-07-29T08:29:06;94047.94;;;25.56;67.38
11049;BME280;5577;42.706;23.160;2023-07-29T08:31:50;94051.28;;;25.60;64.08
11049;BME280;5577;42.706;23.160;2023-07-29T08:34:35;94054.34;;;25.71;62.60
11049;BME280;5577;42.706;23.160;2023-07-29T08:37:19;94055.84;;;25.72;60.15
11049;BME280;5577;42.706;23.160;2023-07-29T08:40:03;94048.34;;;25.76;58.56
11049;BME280;5577;42.706;23.160;2023-07-29T08:42:48;94049.78;;;25.90;56.12
11049;BME280;5577;42.706;23.160;2023-07-29T08:45:35;94045.78;;;26.03;58.18
11049;BME280;5577;42.706;23.160;2023-07-29T08:48:24;94044.47;;;26.08;56.45
11049;BME280;5577;42.706;23.160;2023-07-29T08:51:13;94048.47;;;26.25;53.57
11049;BME280;5577;42.706;23.160;2023-07-29T08:54:01;94034.78;;;26.37;54.69
11049;BME280;5577;42.706;23.160;2023-07-29T08:56:46;94036.53;;;26.71;59.98
11049;BME280;5577;42.706;23.160;2023-07-29T08:59:30;94021.03;;;27.07;54.33
11049;BME280;5577;42.706;23.160;2023-07-29T09:02:15;94033.06;;;26.88;53.90
11049;BME280;5577;42.706;23.160;2023-07-29T09:04:59;94027.50;;;27.19;51.62
11049;BME280;5577;42.706;23.160;2023-07-29T09:07:44;94037.94;;;27.11;48.98
11049;BME280;5577;42.706;23.160;2023-07-29T09:10:29;94022.41;;;27.30;45.82
11049;BME280;5577;42.706;23.160;2023-07-29T09:13:13;94024.75;;;27.64;48.96
11049;BME280;5577;42.706;23.160;2023-07-29T09:15:57;94024.88;;;27.79;44.59
11049;BME280;5577;42.706;23.160;2023-07-29T09:18:42;94025.13;;;28.40;50.37
11049;BME280;5577;42.706;23.160;2023-07-29T09:21:26;94017.88;;;28.70;46.40
11049;BME280;5577;42.706;23.160;2023-07-29T09:24:12;94011.72;;;28.84;46.79
11049;BME280;5577;42.706;23.160;2023-07-29T09:26:59;94021.63;;;28.72;45.34
11049;BME280;5577;42.706;23.160;2023-07-29T09:29:43;94013.50;;;28.87;42.47
11049;BME280;5577;42.706;23.160;2023-07-29T09:32:27;94013.06;;;28.88;42.11
11049;BME280;5577;42.706;23.160;2023-07-29T09:35:12;93990.53;;;28.79;42.71
11049;BME280;5577;42.706;23.160;2023-07-29T09:37:56;93994.03;;;28.79;41.35
11049;BME280;5577;42.706;23.160;2023-07-29T09:40:40;93981.56;;;28.87;40.68
11049;BME280;5577;42.706;23.160;2023-07-29T09:43:26;93999.22;;;29.15;41.50
11049;BME280;5577;42.706;23.160;2023-07-29T09:46:12;94002.53;;;29.19;40.11
11049;BME280;5577;42.706;23.160;2023-07-29T09:48:56;93998.72;;;28.79;39.85
11049;BME280;5577;42.706;23.160;2023-07-29T09:51:40;93995.06;;;29.05;41.11
11049;BME280;5577;42.706;23.160;2023-07-29T09:54:25;93996.91;;;29.52;39.90
11049;BME280;5577;42.706;23.160;2023-07-29T09:57:09;93992.19;;;30.10;42.74
11049;BME280;5577;42.706;23.160;2023-07-29T09:59:54;93979.56;;;30.62;41.96
11049;BME280;5577;42.706;23.160;2023-07-29T10:02:43;93986.78;;;30.65;38.59
11049;BME280;5577;42.706;23.160;2023-07-29T10:05:28;93978.59;;;29.67;37.12
11049;BME280;5577;42.706;23.160;2023-07-29T10:08:13;93983.28;;;29.95;39.17
11049;BME280;5577;42.706;23.160;2023-07-29T10:11:08;93971.34;;;29.78;39.62
11049;BME280;5577;42.706;23.160;2023-07-29T10:13:52;93965.97;;;29.84;38.77
11049;BME280;5577;42.706;23.160;2023-07-29T10:16:39;93968.53;;;29.58;38.30
11049;BME280;5577;42.706;23.160;2023-07-29T10:19:25;93969.06;;;29.48;38.67
11049;BME280;5577;42.706;23.160;2023-07-29T10:22:10;93954.03;;;29.23;38.60
11049;BME280;5577;42.706;23.160;2023-07-29T10:25:01;93956.28;;;29.54;37.82
11049;BME280;5577;42.706;23.160;2023-07-29T10:27:53;93952.63;;;29.57;36.81
11049;BME280;5577;42.706;23.160;2023-07-29T10:30:40;93943.16;;;30.16;37.67
11049;BME280;5577;42.706;23.160;2023-07-29T10:33:24;93944.84;;;30.68;36.44
11049;BME280;5577;42.706;23.160;2023-07-29T10:36:09;93947.81;;;30.85;35.87
11049;BME280;5577;42.706;23.160;2023-07-29T10:38:53;93946.59;;;30.86;35.40
11049;BME280;5577;42.706;23.160;2023-07-29T10:42:00;93941.06;;;31.06;35.40
11049;BME280;5577;42.706;23.160;2023-07-29T10:44:49;93940.19;;;31.65;34.36
11049;BME280;5577;42.706;23.160;2023-07-29T10:47:34;93934.78;;;31.45;35.15
11049;BME280;5577;42.706;23.160;2023-07-29T10:50:21;93929.22;;;31.60;32.68
11049;BME280;5577;42.706;23.160;2023-07-29T10:53:05;93932.94;;;32.24;31.55
11049;BME280;5577;42.706;23.160;2023-07-29T10:55:51;93936.81;;;32.43;31.80
11049;BME280;5577;42.706;23.160;2023-07-29T10:58:35;93932.13;;;32.55;31.48
11049;BME280;5577;42.706;23.160;2023-07-29T11:01:31;93922.91;;;33.22;31.53
11049;BME280;5577;42.706;23.160;2023-07-29T11:04:29;93925.72;;;33.55;29.60
11049;BME280;5577;42.706;23.160;2023-07-29T11:10:05;93924.72;;;33.58;29.98
11049;BME280;5577;42.706;23.160;2023-07-29T11:12:50;93919.88;;;34.63;29.72
11049;BME280;5577;42.706;23.160;2023-07-29T11:15:35;93914.72;;;35.06;27.13
11049;BME280;5577;42.706;23.160;2023-07-29T11:18:20;93912.84;;;34.73;27.11
11049;BME280;5577;42.706;23.160;2023-07-29T11:21:04;93914.38;;;35.67;28.16
11049;BME280;5577;42.706;23.160;2023-07-29T11:23:49;93923.31;;;35.78;26.52
11049;BME280;5577;42.706;23.160;2023-07-29T11:26:37;93910.88;;;35.66;26.41
11049;BME280;5577;42.706;23.160;2023-07-29T11:29:21;93911.19;;;34.48;26.69
11049;BME280;5577;42.706;23.160;2023-07-29T11:32:06;93909.53;;;34.07;28.12
11049;BME280;5577;42.706;23.160;2023-07-29T11:34:50;93903.38;;;34.63;27.32
11049;BME280;5577;42.706;23.160;2023-07-29T11:37:35;93908.03;;;33.56;26.80
11049;BME280;5577;42.706;23.160;2023-07-29T11:40:21;93899.97;;;33.20;27.89
11049;BME280;5577;42.706;23.160;2023-07-29T11:43:05;93891.81;;;33.86;28.17
11049;BME280;5577;42.706;23.160;2023-07-29T11:45:51;93885.03;;;33.37;27.48
11049;BME280;5577;42.706;23.160;2023-07-29T11:48:35;93878.06;;;33.36;26.74
11049;BME280;5577;42.706;23.160;2023-07-29T11:51:19;93885.50;;;34.18;26.68
11049;BME280;5577;42.706;23.160;2023-07-29T11:54:03;93886.31;;;34.81;25.86
11049;BME280;5577;42.706;23.160;2023-07-29T11:56:47;93885.22;;;35.01;26.05
11049;BME280;5577;42.706;23.160;2023-07-29T11:59:33;93881.22;;;34.28;25.32
11049;BME280;5577;42.706;23.160;2023-07-29T12:02:19;93880.81;;;33.91;27.13
11049;BME280;5577;42.706;23.160;2023-07-29T12:05:08;93874.22;;;34.44;27.06
11049;BME280;5577;42.706;23.160;2023-07-29T12:07:53;93871.28;;;33.21;25.78
11049;BME280;5577;42.706;23.160;2023-07-29T12:10:37;93875.41;;;32.78;27.72
11049;BME280;5577;42.706;23.160;2023-07-29T12:13:24;93865.28;;;33.00;28.22
11049;BME280;5577;42.706;23.160;2023-07-29T12:16:08;93832.69;;;32.54;27.79
11049;BME280;5577;42.706;23.160;2023-07-29T12:18:52;93868.47;;;32.88;27.29
11049;BME280;5577;42.706;23.160;2023-07-29T12:21:36;93862.59;;;33.50;27.32
11049;BME280;5577;42.706;23.160;2023-07-29T12:24:22;93861.81;;;33.93;27.44
11049;BME280;5577;42.706;23.160;2023-07-29T12:27:11;93866.34;;;33.52;27.62
11049;BME280;5577;42.706;23.160;2023-07-29T12:29:56;93860.91;;;32.66;27.74
11049;BME280;5577;42.706;23.160;2023-07-29T12:32:46;93859.63;;;32.56;29.84
11049;BME280;5577;42.706;23.160;2023-07-29T12:35:37;93857.06;;;33.17;27.83
11049;BME280;5577;42.706;23.160;2023-07-29T12:38:21;93856.09;;;33.58;29.50
11049;BME280;5577;42.706;23.160;2023-07-29T12:41:05;93845.34;;;34.10;29.29
11049;BME280;5577;42.706;23.160;2023-07-29T12:43:50;93856.34;;;33.88;26.68
11049;BME280;5577;42.706;23.160;2023-07-29T12:46:34;93850.63;;;33.42;27.69
11049;BME280;5577;42.706;23.160;2023-07-29T12:49:18;93859.84;;;33.72;28.80
11049;BME280;5577;42.706;23.160;2023-07-29T12:52:02;93856.00;;;32.87;27.06
11049;BME280;5577;42.706;23.160;2023-07-29T12:54:47;93855.00;;;32.84;28.10
11049;BME280;5577;42.706;23.160;2023-07-29T12:57:31;93850.28;;;32.90;27.54
11049;BME280;5577;42.706;23.160;2023-07-29T13:00:15;93856.88;;;33.37;27.87
11049;BME280;5577;42.706;23.160;2023-07-29T13:02:58;93844.38;;;33.63;25.97
11049;BME280;5577;42.706;23.160;2023-07-29T13:05:42;93837.84;;;33.33;27.12
11049;BME280;5577;42.706;23.160;2023-07-29T13:08:26;93831.28;;;32.81;26.99
11049;BME280;5577;42.706;23.160;2023-07-29T13:11:11;93837.50;;;32.71;27.81
11049;BME280;5577;42.706;23.160;2023-07-29T13:13:55;93825.56;;;32.79;27.29
11049;BME280;5577;42.706;23.160;2023-07-29T13:16:39;93835.41;;;32.43;27.77
11049;BME280;5577;42.706;23.160;2023-07-29T13:19:23;93837.91;;;32.36;27.29
11049;BME280;5577;42.706;23.160;2023-07-29T13:22:07;93838.72;;;32.11;27.56
11049;BME280;5577;42.706;23.160;2023-07-29T13:24:51;93833.03;;;32.14;27.75
11049;BME280;5577;42.706;23.160;2023-07-29T13:27:35;93831.72;;;32.52;28.01
11049;BME280;5577;42.706;23.160;2023-07-29T13:30:19;93828.91;;;32.35;28.30
11049;BME280;5577;42.706;23.160;2023-07-29T13:33:03;93825.44;;;32.46;29.12
11049;BME280;5577;42.706;23.160;2023-07-29T13:35:47;93825.25;;;32.61;27.81
11049;BME280;5577;42.706;23.160;2023-07-29T13:38:31;93806.13;;;32.13;27.27
11049;BME280;5577;42.706;23.160;2023-07-29T13:41:15;93800.03;;;32.40;27.76
11049;BME280;5577;42.706;23.160;2023-07-29T13:43:59;93806.84;;;32.72;27.25
11049;BME280;5577;42.706;23.160;2023-07-29T13:46:42;93812.34;;;32.78;26.40
11049;BME280;5577;42.706;23.160;2023-07-29T13:49:26;93805.25;;;32.38;27.38
11049;BME280;5577;42.706;23.160;2023-07-29T13:52:10;93799.19;;;32.93;29.25
11049;BME280;5577;42.706;23.160;2023-07-29T13:54:54;93795.44;;;33.01;27.61
11049;BME280;5577;42.706;23.160;2023-07-29T13:57:38;93809.41;;;32.92;28.39
11049;BME280;5577;42.706;23.160;2023-07-29T14:00:24;93797.41;;;32.84;28.34
11049;BME280;5577;42.706;23.160;2023-07-29T14:03:08;93798.94;;;32.26;28.57
11049;BME280;5577;42.706;23.160;2023-07-29T14:05:52;93799.34;;;32.67;29.09
11049;BME280;5577;42.706;23.160;2023-07-29T14:08:35;93793.72;;;33.20;28.22
11049;BME280;5577;42.706;23.160;2023-07-29T14:11:19;93793.72;;;33.53;27.43
11049;BME280;5577;42.706;23.160;2023-07-29T14:14:03;93783.50;;;33.43;27.80
11049;BME280;5577;42.706;23.160;2023-07-29T14:16:47;93787.69;;;33.77;27.95
11049;BME280;5577;42.706;23.160;2023-07-29T14:19:32;93789.44;;;33.91;26.56
11049;BME280;5577;42.706;23.160;2023-07-29T14:22:17;93785.97;;;33.08;28.46
11049;BME280;5577;42.706;23.160;2023-07-29T14:25:01;93783.88;;;32.58;30.84
11049;BME280;5577;42.706;23.160;2023-07-29T14:27:45;93788.69;;;32.10;31.81
11049;BME280;5577;42.706;23.160;2023-07-29T14:30:29;93793.88;;;31.61;31.94
11049;BME280;5577;42.706;23.160;2023-07-29T14:33:13;93787.59;;;31.18;33.25
11049;BME280;5577;42.706;23.160;2023-07-29T14:35:58;93791.75;;;30.83;34.22
11049;BME280;5577;42.706;23.160;2023-07-29T14:38:42;93782.41;;;30.69;34.26
11049;BME280;5577;42.706;23.160;2023-07-29T14:41:26;93789.03;;;30.63;34.94
11049;BME280;5577;42.706;23.160;2023-07-29T14:44:10;93781.69;;;30.49;35.93
11049;BME280;5577;42.706;23.160;2023-07-29T14:46:54;93784.25;;;30.32;36.61
11049;BME280;5577;42.706;23.160;2023-07-29T14:49:38;93786.69;;;29.90;37.54
11049;BME280;5577;42.706;23.160;2023-07-29T14:52:22;93786.88;;;29.66;37.80